Terminal Aerodrome Forecast
Issued by NWS

Home | Current Version | Previous Version | Text Only | Print | Product List | Glossary On
Versions: 1 2 3 4 5 6 7 8 9 10 11 12 13 14 15 16 17 18
000
FTUS43 KICT 290021 AAA
TAFRSL
TAF AMD
KRSL 290021Z 2900/2924 17010KT P6SM VCTS SCT025CB BKN120
      TEMPO 2900/2903 2SM -TSRA
     FM290500 16010KT P6SM VCTS BKN020CB OVC080
     FM291000 21010KT P6SM VCTS BKN012CB OVC060
     FM291900 23005KT P6SM BKN050=

USA.gov is the U.S. government's official web portal to all federal, state and local government web resources and services.